Time,TemperatureF,DewpointF,PressureIn,WindDirection,WindDirectionDegrees,WindSpeedMPH,WindSpeedGustMPH,Humidity,HourlyPrecipIn,Conditions,Clouds,dailyrainin,SolarRadiationWatts/m^2,SoftwareType,DateUTC
2013-08-20 00:02:00,69.0,63.0,-100.00,SSW,212,3.0,7.0,81,0.00,,,0.00,0.000000,,2013-08-20 05:02:00,
2013-08-20 00:10:00,68.0,63.0,-100.00,SW,231,3.0,9.0,84,0.00,,,0.00,0.000000,,2013-08-20 05:10:00,
2013-08-20 00:43:00,68.0,63.0,-100.00,SW,231,3.0,9.0,84,0.00,,,0.00,0.000000,,2013-08-20 05:43:00,
2013-08-20 00:52:00,68.0,63.0,-100.00,SW,231,3.0,9.0,84,0.00,,,0.00,0.000000,,2013-08-20 05:52:00,
2013-08-20 01:02:00,68.0,63.0,-100.00,SW,231,3.0,9.0,84,0.00,,,0.00,0.000000,,2013-08-20 06:02:00,
2013-08-20 01:10:00,67.0,64.0,-100.00,SSW,200,1.0,7.0,89,0.00,,,0.00,0.000000,,2013-08-20 06:10:00,
2013-08-20 01:42:00,67.0,64.0,-100.00,SSW,200,1.0,7.0,89,0.00,,,0.00,0.000000,,2013-08-20 06:42:00,
2013-08-20 01:52:00,67.0,64.0,-100.00,SSW,200,1.0,7.0,89,0.00,,,0.00,0.000000,,2013-08-20 06:52:00,
2013-08-20 02:01:00,67.0,64.0,-100.00,SSW,200,1.0,7.0,89,0.00,,,0.00,0.000000,,2013-08-20 07:01:00,
2013-08-20 02:10:00,65.0,63.0,-100.00,SSW,193,2.0,8.0,92,0.00,,,0.00,0.000000,,2013-08-20 07:10:00,
2013-08-20 02:42:00,65.0,63.0,-100.00,SSW,193,2.0,8.0,92,0.00,,,0.00,0.000000,,2013-08-20 07:42:00,
2013-08-20 02:52:00,65.0,63.0,-100.00,SSW,193,2.0,8.0,92,0.00,,,0.00,0.000000,,2013-08-20 07:52:00,
2013-08-20 03:02:00,65.0,63.0,-100.00,SSW,193,2.0,8.0,92,0.00,,,0.00,0.000000,,2013-08-20 08:02:00,
2013-08-20 03:10:00,64.0,62.0,-100.00,SSW,193,1.0,5.0,94,0.00,,,0.00,0.000000,,2013-08-20 08:10:00,
2013-08-20 03:42:00,64.0,62.0,-100.00,SSW,193,1.0,5.0,94,0.00,,,0.00,0.000000,,2013-08-20 08:42:00,
2013-08-20 03:52:00,64.0,62.0,-100.00,SSW,193,1.0,5.0,94,0.00,,,0.00,0.000000,,2013-08-20 08:52:00,
2013-08-20 04:01:00,64.0,62.0,-100.00,SSW,193,1.0,5.0,94,0.00,,,0.00,0.000000,,2013-08-20 09:01:00,
2013-08-20 04:10:00,63.0,62.0,-100.00,SW,217,0.0,4.0,97,0.00,,,0.00,0.000000,,2013-08-20 09:10:00,
2013-08-20 04:42:00,63.0,62.0,-100.00,SW,217,0.0,4.0,97,0.00,,,0.00,0.000000,,2013-08-20 09:42:00,
2013-08-20 04:53:00,63.0,62.0,-100.00,SW,217,0.0,4.0,97,0.00,,,0.00,0.000000,,2013-08-20 09:53:00,
2013-08-20 05:04:00,63.0,62.0,-100.00,SW,217,0.0,4.0,97,0.00,,,0.00,0.000000,,2013-08-20 10:04:00,
2013-08-20 05:10:00,62.0,61.0,-100.00,South,183,0.0,5.0,97,0.00,,,0.00,0.000000,,2013-08-20 10:10:00,
2013-08-20 05:43:00,62.0,61.0,-100.00,South,183,0.0,5.0,97,0.00,,,0.00,0.000000,,2013-08-20 10:43:00,
2013-08-20 05:52:00,62.0,61.0,-100.00,South,183,0.0,5.0,97,0.00,,,0.00,0.000000,,2013-08-20 10:52:00,
2013-08-20 06:02:00,62.0,61.0,-100.00,South,183,0.0,5.0,97,0.00,,,0.00,0.000000,,2013-08-20 11:02:00,
2013-08-20 06:10:00,63.0,62.0,-100.00,SSW,195,2.0,5.0,96,0.00,,,-99.99,1.000000,,2013-08-20 11:10:00,
2013-08-20 06:42:00,63.0,62.0,-100.00,SSW,195,2.0,5.0,96,0.00,,,-99.99,1.000000,,2013-08-20 11:42:00,
2013-08-20 06:52:00,63.0,62.0,-100.00,SSW,195,2.0,5.0,96,0.00,,,-99.99,1.000000,,2013-08-20 11:52:00,
2013-08-20 07:01:00,63.0,62.0,-100.00,SSW,195,2.0,5.0,96,0.00,,,-99.99,1.000000,,2013-08-20 12:01:00,
2013-08-20 07:10:00,64.0,62.0,-100.00,SSW,192,2.0,7.0,94,0.00,,,0.00,19.000000,,2013-08-20 12:10:00,
2013-08-20 07:42:00,64.0,62.0,-100.00,SSW,192,2.0,7.0,94,0.00,,,0.00,19.000000,,2013-08-20 12:42:00,
2013-08-20 07:52:00,64.0,62.0,-100.00,SSW,192,2.0,7.0,94,0.00,,,0.00,19.000000,,2013-08-20 12:52:00,
2013-08-20 08:01:00,64.0,62.0,-100.00,SSW,192,2.0,7.0,94,0.00,,,0.00,19.000000,,2013-08-20 13:01:00,
2013-08-20 08:10:00,67.0,63.0,-100.00,SSW,200,2.0,8.0,86,0.00,,,0.00,52.000000,,2013-08-20 13:10:00,
2013-08-20 08:42:00,67.0,63.0,-100.00,SSW,200,2.0,8.0,86,0.00,,,0.00,52.000000,,2013-08-20 13:42:00,
2013-08-20 08:52:00,67.0,63.0,-100.00,SSW,200,2.0,8.0,86,0.00,,,0.00,52.000000,,2013-08-20 13:52:00,
2013-08-20 09:02:00,67.0,63.0,-100.00,SSW,200,2.0,8.0,86,0.00,,,0.00,52.000000,,2013-08-20 14:02:00,
2013-08-20 09:10:00,72.0,64.0,-100.00,South,186,3.0,8.0,76,0.00,,,0.00,185.000000,,2013-08-20 14:10:00,
2013-08-20 09:42:00,72.0,64.0,-100.00,South,186,3.0,8.0,76,0.00,,,0.00,185.000000,,2013-08-20 14:42:00,
2013-08-20 09:52:00,72.0,64.0,-100.00,South,186,3.0,8.0,76,0.00,,,0.00,185.000000,,2013-08-20 14:52:00,
2013-08-20 10:02:00,72.0,64.0,-100.00,South,186,3.0,8.0,76,0.00,,,0.00,185.000000,,2013-08-20 15:02:00,
2013-08-20 10:10:00,75.0,65.0,-100.00,SSW,195,3.0,10.0,70,0.00,,,0.00,284.000000,,2013-08-20 15:10:00,
2013-08-20 10:43:00,75.0,65.0,-100.00,SSW,195,3.0,10.0,70,0.00,,,0.00,284.000000,,2013-08-20 15:43:00,
2013-08-20 10:53:00,75.0,65.0,-100.00,SSW,195,3.0,10.0,70,0.00,,,0.00,284.000000,,2013-08-20 15:53:00,
2013-08-20 11:04:00,75.0,65.0,-100.00,SSW,195,3.0,10.0,70,0.00,,,0.00,284.000000,,2013-08-20 16:04:00,
2013-08-20 11:10:00,80.0,66.0,-100.00,South,184,5.0,12.0,63,0.00,,,0.00,575.000000,,2013-08-20 16:10:00,
2013-08-20 11:42:00,80.0,66.0,-100.00,South,184,5.0,12.0,63,0.00,,,0.00,575.000000,,2013-08-20 16:42:00,
2013-08-20 11:53:00,80.0,66.0,-100.00,South,184,5.0,12.0,63,0.00,,,0.00,575.000000,,2013-08-20 16:53:00,
2013-08-20 12:03:00,80.0,66.0,-100.00,South,184,5.0,12.0,63,0.00,,,0.00,575.000000,,2013-08-20 17:03:00,
2013-08-20 12:10:00,83.0,67.0,-100.00,South,184,6.0,12.0,58,0.00,,,0.00,661.000000,,2013-08-20 17:10:00,
2013-08-20 12:43:00,83.0,67.0,-100.00,South,184,6.0,12.0,58,0.00,,,0.00,661.000000,,2013-08-20 17:43:00,
2013-08-20 12:52:00,83.0,67.0,-100.00,South,184,6.0,12.0,58,0.00,,,0.00,661.000000,,2013-08-20 17:52:00,
2013-08-20 13:02:00,83.0,67.0,-100.00,South,184,6.0,12.0,58,0.00,,,0.00,661.000000,,2013-08-20 18:02:00,
2013-08-20 13:10:00,84.0,67.0,-100.00,SSW,203,6.0,14.0,56,0.00,,,0.00,519.000000,,2013-08-20 18:10:00,
2013-08-20 13:43:00,84.0,67.0,-100.00,SSW,203,6.0,14.0,56,0.00,,,0.00,519.000000,,2013-08-20 18:43:00,
2013-08-20 13:52:00,84.0,67.0,-100.00,SSW,203,6.0,14.0,56,0.00,,,0.00,519.000000,,2013-08-20 18:52:00,
2013-08-20 14:01:00,84.0,67.0,-100.00,SSW,203,6.0,14.0,56,0.00,,,0.00,519.000000,,2013-08-20 19:01:00,
2013-08-20 14:10:00,87.0,67.0,-100.00,SSW,193,5.0,16.0,51,0.00,,,0.00,542.000000,,2013-08-20 19:10:00,
2013-08-20 14:42:00,87.0,67.0,-100.00,SSW,193,5.0,16.0,51,0.00,,,0.00,542.000000,,2013-08-20 19:42:00,
2013-08-20 14:53:00,87.0,67.0,-100.00,SSW,193,5.0,16.0,51,0.00,,,0.00,542.000000,,2013-08-20 19:53:00,
2013-08-20 15:03:00,87.0,67.0,-100.00,SSW,193,5.0,16.0,51,0.00,,,0.00,542.000000,,2013-08-20 20:03:00,
2013-08-20 15:10:00,87.0,67.0,-100.00,South,189,4.0,13.0,51,0.00,,,0.00,430.000000,,2013-08-20 20:10:00,
2013-08-20 15:42:00,87.0,67.0,-100.00,South,189,4.0,13.0,51,0.00,,,0.00,430.000000,,2013-08-20 20:42:00,
2013-08-20 15:52:00,87.0,67.0,-100.00,South,189,4.0,13.0,51,0.00,,,0.00,430.000000,,2013-08-20 20:52:00,
2013-08-20 16:02:00,87.0,67.0,-100.00,South,189,4.0,13.0,51,0.00,,,0.00,430.000000,,2013-08-20 21:02:00,
2013-08-20 16:10:00,87.0,67.0,-100.00,South,185,5.0,15.0,52,0.00,,,0.00,412.000000,,2013-08-20 21:10:00,
2013-08-20 17:10:00,85.0,67.0,-100.00,South,189,3.0,13.0,55,0.00,,,0.00,252.000000,,2013-08-20 22:10:00,
2013-08-20 17:42:00,85.0,67.0,-100.00,South,189,3.0,13.0,55,0.00,,,0.00,252.000000,,2013-08-20 22:42:00,
2013-08-20 17:54:00,85.0,67.0,-100.00,South,189,3.0,13.0,55,0.00,,,0.00,252.000000,,2013-08-20 22:54:00,
2013-08-20 18:03:00,85.0,67.0,-100.00,South,189,3.0,13.0,55,0.00,,,0.00,252.000000,,2013-08-20 23:03:00,
2013-08-20 18:10:00,84.0,68.0,-100.00,SSW,196,4.0,14.0,58,0.00,,,0.00,164.000000,,2013-08-20 23:10:00,
2013-08-20 18:43:00,84.0,68.0,-100.00,SSW,196,4.0,14.0,58,0.00,,,0.00,164.000000,,2013-08-20 23:43:00,
2013-08-20 18:53:00,84.0,68.0,-100.00,SSW,196,4.0,14.0,58,0.00,,,0.00,164.000000,,2013-08-20 23:53:00,
2013-08-20 19:02:00,84.0,68.0,-100.00,SSW,196,4.0,14.0,58,0.00,,,0.00,164.000000,,2013-08-21 00:02:00,
2013-08-20 19:10:00,81.0,67.0,-100.00,South,188,3.0,10.0,63,0.00,,,0.00,101.000000,,2013-08-21 00:10:00,
2013-08-20 19:42:00,81.0,67.0,-100.00,South,188,3.0,10.0,63,0.00,,,0.00,101.000000,,2013-08-21 00:42:00,
2013-08-20 19:52:00,81.0,67.0,-100.00,South,188,3.0,10.0,63,0.00,,,0.00,101.000000,,2013-08-21 00:52:00,
2013-08-20 20:02:00,81.0,67.0,-100.00,South,188,3.0,10.0,63,0.00,,,0.00,101.000000,,2013-08-21 01:02:00,
2013-08-20 20:10:00,79.0,67.0,-100.00,SSW,207,2.0,10.0,67,0.00,,,0.00,11.000000,,2013-08-21 01:10:00,
2013-08-20 20:42:00,79.0,67.0,-100.00,SSW,207,2.0,10.0,67,0.00,,,0.00,11.000000,,2013-08-21 01:42:00,
2013-08-20 20:52:00,79.0,67.0,-100.00,SSW,207,2.0,10.0,67,0.00,,,0.00,11.000000,,2013-08-21 01:52:00,
2013-08-20 21:02:00,79.0,67.0,-100.00,SSW,207,2.0,10.0,67,0.00,,,0.00,11.000000,,2013-08-21 02:02:00,
2013-08-20 21:10:00,77.0,68.0,-100.00,SSW,205,2.0,9.0,73,0.00,,,0.00,0.000000,,2013-08-21 02:10:00,
2013-08-20 21:42:00,77.0,68.0,-100.00,SSW,205,2.0,9.0,73,0.00,,,0.00,0.000000,,2013-08-21 02:42:00,
2013-08-20 21:52:00,77.0,68.0,-100.00,SSW,205,2.0,9.0,73,0.00,,,0.00,0.000000,,2013-08-21 02:52:00,
2013-08-20 22:02:00,77.0,68.0,-100.00,SSW,205,2.0,9.0,73,0.00,,,0.00,0.000000,,2013-08-21 03:02:00,
2013-08-20 22:10:00,76.0,67.0,-100.00,SSW,201,2.0,10.0,75,0.00,,,0.00,0.000000,,2013-08-21 03:10:00,
2013-08-20 22:44:00,76.0,67.0,-100.00,SSW,201,2.0,10.0,75,0.00,,,0.00,0.000000,,2013-08-21 03:44:00,
2013-08-20 22:55:00,76.0,67.0,-100.00,SSW,201,2.0,10.0,75,0.00,,,0.00,0.000000,,2013-08-21 03:55:00,
2013-08-20 23:04:00,76.0,67.0,-100.00,SSW,201,2.0,10.0,75,0.00,,,0.00,0.000000,,2013-08-21 04:04:00,
2013-08-20 23:10:00,74.0,67.0,-100.00,SSW,196,3.0,10.0,78,0.00,,,0.00,0.000000,,2013-08-21 04:10:00,
2013-08-20 23:44:00,74.0,67.0,-100.00,SSW,196,3.0,10.0,78,0.00,,,0.00,0.000000,,2013-08-21 04:44:00,
2013-08-20 23:54:00,74.0,67.0,-100.00,SSW,196,3.0,10.0,78,0.00,,,0.00,0.000000,,2013-08-21 04:54:00,